createdAt,value
2023-02-23T00:01:56.370Z,12.90
2023-02-23T00:04:25.273Z,14.63
2023-02-23T00:06:53.901Z,11.88
2023-02-23T00:09:24.321Z,12.38
2023-02-23T00:11:53.849Z,13.20
2023-02-23T00:14:23.186Z,13.35
2023-02-23T00:16:51.208Z,13.25
2023-02-23T00:19:21.212Z,14.20
2023-02-23T00:21:51.036Z,14.37
2023-02-23T00:24:20.252Z,12.50
2023-02-23T00:26:51.554Z,11.07
2023-02-23T00:29:22.021Z,11.47
2023-02-23T00:31:51.500Z,15.00
2023-02-23T00:34:23.500Z,11.53
2023-02-23T00:36:54.464Z,12.80
2023-02-23T00:39:26.835Z,12.43
2023-02-23T00:41:56.301Z,11.17
2023-02-23T00:44:25.491Z,10.50
2023-02-23T00:46:53.841Z,13.60
2023-02-23T00:49:24.481Z,12.30
2023-02-23T00:51:53.076Z,11.10
2023-02-23T00:54:22.143Z,10.87
2023-02-23T00:56:50.477Z,10.63
2023-02-23T00:59:19.001Z,17.70
2023-02-23T01:01:47.271Z,10.27
2023-02-23T01:04:15.382Z,10.17
2023-02-23T01:06:46.412Z,10.03
2023-02-23T01:09:21.923Z,9.27
2023-02-23T01:11:50.521Z,11.70
2023-02-23T01:14:18.462Z,10.07
2023-02-23T01:16:46.433Z,10.23
2023-02-23T01:19:15.984Z,10.00
2023-02-23T01:21:45.434Z,12.20
2023-02-23T01:24:14.194Z,10.10
2023-02-23T01:26:44.787Z,9.97
2023-02-23T01:29:14.748Z,10.27
2023-02-23T01:31:44.492Z,9.73
2023-02-23T01:34:14.773Z,9.10
2023-02-23T01:36:45.426Z,9.90
2023-02-23T01:39:16.078Z,9.77
2023-02-23T01:41:44.461Z,9.90
2023-02-23T01:44:45.980Z,9.30
2023-02-23T01:47:17.045Z,9.80
2023-02-23T01:49:45.067Z,11.43
2023-02-23T01:52:17.910Z,10.30
2023-02-23T01:54:51.595Z,10.47
2023-02-23T01:57:24.756Z,9.70
2023-02-23T01:59:53.717Z,9.63
2023-02-23T02:02:33.381Z,10.27
2023-02-23T02:05:04.107Z,9.37
2023-02-23T02:07:36.162Z,9.20
2023-02-23T02:10:33.978Z,11.20
2023-02-23T02:13:05.807Z,10.60
2023-02-23T02:15:39.298Z,9.53
2023-02-23T02:18:18.473Z,9.20
2023-02-23T02:21:14.679Z,11.03
2023-02-23T02:24:10.886Z,9.93
2023-02-23T02:26:52.395Z,14.10
2023-02-23T02:30:12.708Z,11.47
2023-02-23T02:33:11.419Z,9.97
2023-02-23T02:36:18.075Z,9.40
2023-02-23T02:38:56.423Z,10.03
2023-02-23T02:41:35.567Z,14.53
2023-02-23T02:44:12.670Z,12.20
2023-02-23T02:46:44.946Z,12.60
2023-02-23T02:49:18.119Z,11.87
2023-02-23T02:51:50.037Z,11.57
2023-02-23T02:54:26.963Z,11.97
2023-02-23T02:56:57.817Z,10.30
2023-02-23T02:59:45.278Z,12.00
2023-02-23T03:02:35.414Z,10.60
2023-02-23T03:05:30.968Z,10.50
2023-02-23T03:08:27.984Z,11.97
2023-02-23T03:11:21.375Z,11.47
2023-02-23T03:14:18.192Z,11.87
2023-02-23T03:17:13.242Z,13.57
2023-02-23T03:20:06.805Z,18.40
2023-02-23T03:22:58.528Z,15.60
2023-02-23T03:25:50.816Z,14.37
2023-02-23T03:28:43.116Z,14.50
2023-02-23T03:31:35.163Z,14.23
2023-02-23T03:34:28.562Z,17.60
2023-02-23T03:37:23.374Z,13.80
2023-02-23T03:40:15.262Z,15.27
2023-02-23T03:43:03.641Z,14.70
2023-02-23T03:45:50.683Z,15.30
2023-02-23T03:48:40.598Z,12.37
2023-02-23T03:51:32.085Z,14.30
2023-02-23T03:54:24.332Z,14.77
2023-02-23T03:57:12.135Z,12.87
2023-02-23T04:00:02.029Z,15.00
2023-02-23T04:02:53.389Z,12.97
2023-02-23T04:05:42.258Z,15.27
2023-02-23T04:08:32.730Z,14.40
2023-02-23T04:11:30.436Z,15.53
2023-02-23T04:14:01.906Z,13.40
2023-02-23T04:16:30.556Z,14.07
2023-02-23T04:18:59.966Z,15.70
2023-02-23T04:21:27.906Z,17.87
2023-02-23T04:23:55.871Z,16.23
2023-02-23T04:26:23.949Z,16.60
2023-02-23T04:28:51.869Z,14.00
2023-02-23T04:31:22.184Z,12.67
2023-02-23T04:33:51.478Z,15.10
2023-02-23T04:36:20.789Z,13.47
2023-02-23T04:38:48.696Z,16.13
2023-02-23T04:41:16.843Z,15.63
2023-02-23T04:43:44.854Z,15.53
2023-02-23T04:46:12.780Z,16.20
2023-02-23T04:48:40.743Z,16.47
2023-02-23T04:51:08.755Z,14.70
2023-02-23T04:53:39.418Z,12.93
2023-02-23T04:56:08.255Z,14.57
2023-02-23T04:58:36.217Z,14.00
2023-02-23T05:01:09.666Z,14.87
2023-02-23T05:03:37.772Z,14.20
2023-02-23T05:06:05.970Z,14.30
2023-02-23T05:08:33.894Z,13.80
2023-02-23T05:11:03.119Z,16.33
2023-02-23T05:13:31.083Z,16.97
2023-02-23T05:15:59.039Z,14.83
2023-02-23T05:18:27.340Z,14.53
2023-02-23T05:21:02.094Z,15.87
2023-02-23T05:23:30.464Z,16.67
2023-02-23T05:26:04.226Z,13.63
2023-02-23T05:28:34.830Z,18.10
2023-02-23T05:31:04.602Z,17.47
2023-02-23T05:33:33.257Z,17.20
2023-02-23T05:36:06.628Z,13.40
2023-02-23T05:38:34.573Z,15.00
2023-02-23T05:41:06.231Z,14.97
2023-02-23T05:43:35.825Z,16.03
2023-02-23T05:46:07.789Z,14.53
2023-02-23T05:48:35.916Z,15.47
2023-02-23T05:51:05.264Z,16.50
2023-02-23T05:53:33.469Z,16.55
2023-02-23T05:56:02.956Z,16.60
2023-02-23T05:58:31.491Z,14.90
2023-02-23T06:01:00.931Z,17.60
2023-02-23T06:03:28.917Z,17.60
2023-02-23T06:05:59.044Z,15.40
2023-02-23T06:08:27.363Z,14.40
2023-02-23T06:10:55.444Z,16.80
2023-02-23T06:13:23.688Z,17.93
2023-02-23T06:15:51.754Z,15.63
2023-02-23T06:18:22.221Z,16.87
2023-02-23T06:20:50.214Z,14.00
2023-02-23T06:23:18.610Z,16.20
2023-02-23T06:25:48.300Z,21.80
2023-02-23T06:28:16.732Z,18.33
2023-02-23T06:30:44.882Z,23.40
2023-02-23T06:33:12.884Z,29.97
2023-02-23T06:35:42.623Z,35.10
2023-02-23T06:38:10.601Z,24.47
2023-02-23T06:40:39.420Z,19.40
2023-02-23T06:43:07.646Z,17.10
2023-02-23T06:45:35.669Z,16.67
2023-02-23T06:48:03.976Z,17.93
2023-02-23T06:50:31.938Z,14.10
2023-02-23T06:53:01.260Z,15.77
2023-02-23T06:55:29.212Z,17.77
2023-02-23T06:57:57.116Z,15.13
2023-02-23T07:00:25.421Z,15.50
2023-02-23T07:02:53.435Z,16.07
2023-02-23T07:05:21.419Z,19.97
2023-02-23T07:07:49.392Z,19.67
2023-02-23T07:10:19.321Z,19.60
2023-02-23T07:12:47.316Z,41.77
2023-02-23T07:15:18.459Z,23.17
2023-02-23T07:17:48.801Z,18.80
2023-02-23T07:20:17.458Z,23.87
2023-02-23T07:22:45.414Z,21.10
2023-02-23T07:25:13.786Z,20.60
2023-02-23T07:27:44.531Z,26.27
2023-02-23T07:30:14.015Z,32.47
2023-02-23T07:32:42.594Z,32.90
2023-02-23T07:35:11.291Z,56.53
2023-02-23T07:37:39.353Z,34.53
2023-02-23T07:40:08.554Z,25.93
2023-02-23T07:42:36.608Z,23.87
2023-02-23T07:45:09.481Z,23.33
2023-02-23T07:47:39.339Z,25.00
2023-02-23T07:50:09.865Z,22.30
2023-02-23T07:52:38.472Z,25.60
2023-02-23T07:55:07.899Z,22.10
2023-02-23T07:57:36.175Z,21.30
2023-02-23T08:00:06.797Z,20.40
2023-02-23T08:02:41.611Z,18.73
2023-02-23T08:05:09.890Z,24.53
2023-02-23T08:07:38.096Z,21.40
2023-02-23T08:10:06.957Z,20.23
2023-02-23T08:12:35.092Z,23.83
2023-02-23T08:15:03.133Z,20.63
2023-02-23T08:17:32.456Z,21.03
2023-02-23T08:20:00.395Z,23.00
2023-02-23T08:22:30.453Z,21.63
2023-02-23T08:24:59.955Z,21.73
2023-02-23T08:27:27.906Z,22.97
2023-02-23T08:29:57.451Z,25.03
2023-02-23T08:32:25.468Z,22.33
2023-02-23T08:34:55.564Z,18.27
2023-02-23T08:37:23.504Z,20.93
2023-02-23T08:39:52.504Z,18.53
2023-02-23T08:42:20.456Z,24.13
2023-02-23T08:44:49.281Z,21.87
2023-02-23T08:47:17.797Z,20.33
2023-02-23T08:49:45.710Z,28.03
2023-02-23T08:52:15.167Z,23.50
2023-02-23T08:54:43.144Z,22.97
2023-02-23T08:57:12.603Z,21.63
2023-02-23T08:59:41.255Z,19.80
2023-02-23T09:02:13.418Z,23.27
2023-02-23T09:04:42.849Z,19.20
2023-02-23T09:07:15.165Z,21.50
2023-02-23T09:09:44.891Z,22.57
2023-02-23T09:12:12.822Z,28.33
2023-02-23T09:14:40.742Z,22.53
2023-02-23T09:17:08.675Z,22.90
2023-02-23T09:19:36.675Z,26.90
2023-02-23T09:22:04.713Z,21.70
2023-02-23T09:24:32.703Z,23.00
2023-02-23T09:27:02.505Z,22.50
2023-02-23T09:29:30.567Z,22.97
2023-02-23T09:31:58.594Z,21.57
2023-02-23T09:34:29.349Z,22.83
2023-02-23T09:36:57.280Z,22.57
2023-02-23T09:39:37.286Z,20.50
2023-02-23T09:42:20.678Z,20.93
2023-02-23T09:45:19.031Z,22.40
2023-02-23T09:47:59.844Z,27.13
2023-02-23T09:50:31.083Z,24.40
2023-02-23T09:53:03.493Z,26.00
2023-02-23T09:55:32.838Z,26.97
2023-02-23T09:58:09.543Z,25.20
2023-02-23T10:00:45.216Z,29.47
2023-02-23T10:03:23.072Z,27.03
2023-02-23T10:05:56.819Z,23.10
2023-02-23T10:08:40.033Z,25.70
2023-02-23T10:11:16.089Z,23.97
2023-02-23T10:13:55.396Z,24.10
2023-02-23T10:16:29.459Z,22.80
2023-02-23T10:19:04.973Z,19.77
2023-02-23T10:21:37.135Z,25.13
2023-02-23T10:24:11.104Z,22.43
2023-02-23T10:26:44.213Z,23.73
2023-02-23T10:29:22.945Z,24.57
2023-02-23T10:31:55.228Z,23.60
2023-02-23T10:34:24.715Z,24.60
2023-02-23T10:36:58.679Z,23.90
2023-02-23T10:39:27.551Z,23.33
2023-02-23T10:41:57.649Z,26.23
2023-02-23T10:44:29.472Z,31.43
2023-02-23T10:47:01.505Z,27.20
2023-02-23T10:49:38.460Z,25.97
2023-02-23T10:52:07.452Z,24.63
2023-02-23T10:54:43.989Z,28.80
2023-02-23T10:57:20.802Z,23.93
2023-02-23T11:00:27.648Z,25.50
2023-02-23T11:02:58.282Z,24.30
2023-02-23T11:05:33.467Z,24.10
2023-02-23T11:08:21.247Z,20.57
2023-02-23T11:11:01.661Z,26.33
2023-02-23T11:13:34.763Z,23.83
2023-02-23T11:16:06.880Z,24.87
2023-02-23T11:18:35.057Z,20.67
2023-02-23T11:21:03.217Z,19.60
2023-02-23T11:23:36.069Z,25.00
2023-02-23T11:26:07.223Z,21.20
2023-02-23T11:28:38.065Z,30.60
2023-02-23T11:31:15.692Z,26.00
2023-02-23T11:33:44.220Z,25.40
2023-02-23T11:36:18.929Z,26.27
2023-02-23T11:38:47.900Z,26.60
2023-02-23T11:41:22.948Z,30.90
2023-02-23T11:43:52.049Z,26.30
2023-02-23T11:46:22.912Z,30.20
2023-02-23T11:48:56.031Z,30.80
2023-02-23T11:51:27.634Z,33.10
2023-02-23T11:53:56.239Z,30.30
2023-02-23T11:56:27.255Z,27.90
2023-02-23T11:58:58.645Z,28.60
2023-02-23T12:01:41.813Z,32.10
2023-02-23T12:04:10.846Z,31.23
2023-02-23T12:06:41.603Z,28.30
2023-02-23T12:09:18.454Z,32.57
2023-02-23T12:11:52.163Z,30.70
2023-02-23T12:14:30.436Z,31.53
2023-02-23T12:17:05.383Z,27.23
2023-02-23T12:19:38.039Z,30.63
2023-02-23T12:22:12.008Z,34.27
2023-02-23T12:24:45.435Z,31.00
2023-02-23T12:40:44.235Z,33.10
2023-02-23T12:43:18.762Z,34.27
2023-02-23T12:45:53.149Z,34.60
2023-02-23T12:48:31.513Z,35.07
2023-02-23T12:51:03.066Z,36.83
2023-02-23T12:53:39.243Z,38.10
2023-02-23T12:56:22.481Z,40.20
2023-02-23T12:58:58.523Z,37.80
2023-02-23T13:01:32.858Z,37.50
2023-02-23T13:04:28.200Z,40.07
2023-02-23T13:07:05.052Z,34.90
2023-02-23T13:09:45.934Z,36.57
2023-02-23T13:12:36.296Z,39.87
2023-02-23T13:15:19.729Z,36.97
2023-02-23T13:17:55.160Z,36.27
2023-02-23T13:20:28.650Z,44.27
2023-02-23T13:23:03.179Z,43.13
2023-02-23T13:25:38.329Z,41.63
2023-02-23T13:28:16.793Z,42.13
2023-02-23T13:30:47.625Z,46.30
2023-02-23T13:33:34.989Z,50.00
2023-02-23T13:36:07.675Z,41.90
2023-02-23T13:38:44.699Z,51.23
2023-02-23T13:41:25.508Z,48.97
2023-02-23T13:44:02.594Z,41.93
2023-02-23T13:46:41.889Z,47.97
2023-02-23T13:49:28.581Z,42.00
2023-02-23T13:52:01.062Z,46.03
2023-02-23T13:54:33.613Z,45.90
2023-02-23T13:57:03.810Z,43.10
2023-02-23T13:59:39.768Z,41.17
2023-02-23T14:02:26.027Z,46.40
2023-02-23T14:04:57.744Z,46.10
2023-02-23T14:07:30.830Z,48.97
2023-02-23T14:10:04.910Z,42.40
2023-02-23T14:12:35.819Z,43.00
2023-02-23T14:15:41.358Z,44.23
2023-02-23T14:18:30.133Z,41.67
2023-02-23T14:21:05.130Z,47.50
2023-02-23T14:23:49.765Z,43.10
2023-02-23T14:26:34.112Z,42.57
2023-02-23T14:29:23.037Z,46.00
2023-02-23T14:32:00.388Z,44.50
2023-02-23T14:34:46.634Z,45.13
2023-02-23T14:37:19.157Z,41.00
2023-02-23T14:39:49.928Z,42.17
2023-02-23T14:42:23.429Z,44.43
2023-02-23T14:44:52.670Z,43.33
2023-02-23T14:47:23.849Z,46.30
2023-02-23T14:49:56.637Z,47.07
2023-02-23T14:52:26.526Z,39.03
2023-02-23T14:55:21.005Z,41.57
2023-02-23T14:57:49.603Z,42.53
2023-02-23T15:00:23.219Z,39.07
2023-02-23T15:02:59.182Z,39.73
2023-02-23T15:05:30.039Z,47.03
2023-02-23T15:08:02.480Z,43.23
2023-02-23T15:10:34.902Z,38.80
2023-02-23T15:13:10.516Z,43.10
2023-02-23T15:15:45.382Z,39.37
2023-02-23T15:19:08.759Z,50.77
2023-02-23T15:21:58.514Z,43.07
2023-02-23T15:24:28.545Z,36.87
2023-02-23T15:26:57.525Z,41.83
2023-02-23T15:29:27.541Z,45.43
2023-02-23T15:31:58.083Z,37.73
2023-02-23T15:34:30.144Z,38.53
2023-02-23T15:37:03.021Z,41.57
2023-02-23T15:39:37.455Z,45.07
2023-02-23T15:42:07.482Z,43.03
2023-02-23T15:44:44.008Z,36.83
2023-02-23T15:47:21.213Z,38.47
2023-02-23T15:49:50.317Z,49.90
2023-02-23T15:52:23.717Z,45.10
2023-02-23T15:54:56.832Z,44.67
2023-02-23T15:57:30.978Z,37.20
2023-02-23T16:00:01.849Z,35.83
2023-02-23T16:02:31.562Z,38.60
2023-02-23T16:05:10.066Z,35.93
2023-02-23T16:07:43.381Z,35.77
2023-02-23T16:10:22.133Z,43.23
2023-02-23T16:12:52.224Z,57.20
2023-02-23T16:15:26.916Z,37.00
2023-02-23T16:17:58.785Z,39.80
2023-02-23T16:20:34.768Z,45.50
2023-02-23T16:23:05.398Z,37.40
2023-02-23T16:25:34.426Z,36.03
2023-02-23T16:28:05.719Z,39.30
2023-02-23T16:30:40.562Z,36.90
2023-02-23T16:33:18.903Z,37.63
2023-02-23T16:35:49.003Z,39.00
2023-02-23T16:38:26.606Z,41.30
2023-02-23T16:40:55.169Z,42.00
2023-02-23T16:43:23.239Z,41.20
2023-02-23T16:45:51.715Z,41.80
2023-02-23T16:48:20.631Z,47.17
2023-02-23T16:50:49.429Z,66.10
2023-02-23T16:53:18.899Z,63.10
2023-02-23T16:55:52.147Z,55.13
2023-02-23T16:58:23.161Z,80.10
2023-02-23T17:00:52.343Z,70.47
2023-02-23T17:03:23.061Z,47.70
2023-02-23T17:05:52.104Z,45.73
2023-02-23T17:08:21.932Z,37.43
2023-02-23T17:10:52.185Z,43.30
2023-02-23T17:13:22.041Z,44.17
2023-02-23T17:15:51.853Z,43.80
2023-02-23T17:18:20.689Z,43.30
2023-02-23T17:20:48.948Z,50.87
2023-02-23T17:23:16.988Z,47.10
2023-02-23T17:25:46.473Z,50.33
2023-02-23T17:28:14.900Z,50.60
2023-02-23T17:30:44.783Z,48.80
2023-02-23T17:33:13.576Z,47.13
2023-02-23T17:35:42.835Z,45.33
2023-02-23T17:38:11.365Z,43.07
2023-02-23T17:40:39.750Z,42.90
2023-02-23T17:43:09.334Z,41.07
2023-02-23T17:45:37.935Z,42.40
2023-02-23T17:48:06.479Z,40.33
2023-02-23T17:50:34.503Z,43.70
2023-02-23T17:53:02.579Z,41.50
2023-02-23T17:55:30.646Z,46.17
2023-02-23T17:57:58.696Z,48.33
2023-02-23T18:00:29.013Z,40.77
2023-02-23T18:02:57.126Z,48.70
2023-02-23T18:05:25.294Z,44.33
2023-02-23T18:07:53.333Z,41.60
2023-02-23T18:10:25.313Z,42.10
2023-02-23T18:12:53.565Z,42.00
2023-02-23T18:15:22.065Z,44.00
2023-02-23T18:17:54.508Z,44.30
2023-02-23T18:20:23.279Z,42.90
2023-02-23T18:22:51.365Z,45.13
2023-02-23T18:25:25.839Z,45.57
2023-02-23T18:27:55.037Z,47.47
2023-02-23T18:30:24.798Z,47.70
2023-02-23T18:32:57.639Z,54.63
2023-02-23T18:35:25.840Z,45.97
2023-02-23T18:37:54.206Z,46.63
2023-02-23T18:40:24.091Z,49.27
2023-02-23T18:42:52.256Z,46.73
2023-02-23T18:45:20.423Z,45.70
2023-02-23T18:47:48.820Z,50.00
2023-02-23T18:50:19.971Z,49.30
2023-02-23T18:52:50.981Z,53.37
2023-02-23T18:55:20.154Z,47.70
2023-02-23T18:57:50.492Z,52.90
2023-02-23T19:00:20.334Z,43.30
2023-02-23T19:02:49.105Z,44.90
2023-02-23T19:05:21.720Z,43.23
2023-02-23T19:07:50.280Z,42.40
2023-02-23T19:10:21.241Z,45.10
2023-02-23T19:12:50.315Z,46.87
2023-02-23T19:15:19.653Z,45.50
2023-02-23T19:17:47.672Z,45.53
2023-02-23T19:20:15.938Z,46.37
2023-02-23T19:22:45.853Z,42.60
2023-02-23T19:25:14.434Z,44.77
2023-02-23T19:27:43.175Z,46.27
2023-02-23T19:30:14.618Z,47.20
2023-02-23T19:32:43.996Z,43.70
2023-02-23T19:35:15.180Z,40.60
2023-02-23T19:37:50.799Z,41.23
2023-02-23T19:40:23.897Z,40.20
2023-02-23T19:42:53.110Z,41.97
2023-02-23T19:45:22.345Z,40.57
2023-02-23T19:47:52.941Z,43.13
2023-02-23T19:50:21.816Z,43.57
2023-02-23T19:52:51.406Z,41.43
2023-02-23T19:55:20.383Z,44.40
2023-02-23T19:57:48.720Z,41.77
2023-02-23T20:00:17.539Z,42.23
2023-02-23T20:02:45.928Z,46.27
2023-02-23T20:05:17.109Z,46.17
2023-02-23T20:07:45.726Z,44.90
2023-02-23T20:10:17.016Z,46.10
2023-02-23T20:12:45.857Z,43.43
2023-02-23T20:15:15.376Z,41.83
2023-02-23T20:17:43.675Z,43.87
2023-02-23T20:20:13.319Z,55.10
2023-02-23T20:22:43.366Z,52.20
2023-02-23T20:25:16.558Z,47.37
2023-02-23T20:27:47.598Z,42.87
2023-02-23T20:30:16.325Z,42.87
2023-02-23T20:32:44.838Z,45.63
2023-02-23T20:35:15.369Z,46.57
2023-02-23T20:37:44.775Z,40.20
2023-02-23T20:40:18.389Z,50.50
2023-02-23T20:42:50.020Z,49.43
2023-02-23T20:45:21.477Z,45.80
2023-02-23T20:47:53.117Z,46.27
2023-02-23T20:50:21.988Z,48.17
2023-02-23T20:52:51.033Z,41.13
2023-02-23T20:55:19.825Z,41.10
2023-02-23T20:57:49.603Z,44.03
2023-02-23T21:00:22.740Z,38.13
2023-02-23T21:02:55.489Z,40.50
2023-02-23T21:05:25.345Z,38.60
2023-02-23T21:07:54.235Z,38.60
2023-02-23T21:10:22.461Z,39.57
2023-02-23T21:12:53.161Z,38.13
2023-02-23T21:15:21.325Z,40.43
2023-02-23T21:17:50.556Z,37.03
2023-02-23T21:20:20.926Z,40.17
2023-02-23T21:22:50.197Z,43.47
2023-02-23T21:25:19.393Z,35.83
2023-02-23T21:27:48.048Z,40.30
2023-02-23T21:30:20.638Z,38.27
2023-02-23T21:32:51.120Z,34.80
2023-02-23T21:35:20.260Z,39.33
2023-02-23T21:37:48.674Z,32.70
2023-02-23T21:40:20.685Z,42.80
2023-02-23T21:42:49.490Z,38.00
2023-02-23T21:45:20.327Z,38.60
2023-02-23T21:47:49.706Z,40.30
2023-02-23T21:50:19.511Z,42.80
2023-02-23T21:52:54.110Z,43.90
2023-02-23T21:55:22.665Z,42.20
2023-02-23T21:57:52.420Z,42.30
2023-02-23T22:00:22.978Z,42.57
2023-02-23T22:02:51.776Z,39.93
2023-02-23T22:05:20.716Z,39.87
2023-02-23T22:07:50.042Z,38.47
2023-02-23T22:10:18.942Z,38.77
2023-02-23T22:12:47.136Z,43.30
2023-02-23T22:15:16.765Z,38.10
2023-02-23T22:17:46.231Z,38.20
2023-02-23T22:20:15.285Z,40.63
2023-02-23T22:22:43.293Z,36.93
2023-02-23T22:25:12.422Z,40.53
2023-02-23T22:27:43.744Z,41.17
2023-02-23T22:30:13.847Z,39.90
2023-02-23T22:32:42.800Z,40.60
2023-02-23T22:35:12.859Z,42.20
2023-02-23T22:37:41.061Z,36.30
2023-02-23T22:40:13.677Z,37.80
2023-02-23T22:42:44.704Z,40.13
2023-02-23T22:45:13.046Z,36.23
2023-02-23T22:47:41.078Z,38.03
2023-02-23T22:50:12.196Z,36.67
2023-02-23T22:52:43.055Z,36.93
2023-02-23T22:55:13.122Z,37.80
2023-02-23T22:57:41.632Z,44.07
2023-02-23T23:00:11.605Z,39.33
2023-02-23T23:02:39.697Z,41.30
2023-02-23T23:05:09.433Z,41.83
2023-02-23T23:07:37.497Z,41.23
2023-02-23T23:10:09.324Z,43.50
2023-02-23T23:12:38.119Z,42.87
2023-02-23T23:15:14.791Z,42.50
2023-02-23T23:17:48.090Z,45.70
2023-02-23T23:20:18.752Z,43.13
2023-02-23T23:22:46.795Z,43.57
2023-02-23T23:25:16.253Z,41.90
2023-02-23T23:27:45.924Z,41.40
2023-02-23T23:30:16.937Z,41.70
2023-02-23T23:32:45.711Z,43.10
2023-02-23T23:35:15.428Z,42.70
2023-02-23T23:37:43.610Z,39.33
2023-02-23T23:40:15.164Z,42.23
2023-02-23T23:42:46.899Z,42.37
2023-02-23T23:45:16.283Z,41.10
2023-02-23T23:47:45.005Z,41.93
2023-02-23T23:50:15.592Z,39.40
2023-02-23T23:52:45.334Z,46.50
2023-02-23T23:55:15.795Z,42.30
2023-02-23T23:57:45.368Z,38.40
